sensor_id;sensor_type;location;lat;lon;timestamp;temperature;humidity
38488;DHT22;57384;51.986;4.458;2023-09-12T00:00:37;22.20;65.20
38488;DHT22;57384;51.986;4.458;2023-09-12T00:03:04;22.20;65.50
38488;DHT22;57384;51.986;4.458;2023-09-12T00:05:31;22.10;65.30
38488;DHT22;57384;51.986;4.458;2023-09-12T00:07:58;22.10;65.30
38488;DHT22;57384;51.986;4.458;2023-09-12T00:10:24;22.10;65.40
38488;DHT22;57384;51.986;4.458;2023-09-12T00:12:51;22.00;65.50
38488;DHT22;57384;51.986;4.458;2023-09-12T00:15:17;22.00;65.50
38488;DHT22;57384;51.986;4.458;2023-09-12T00:17:44;22.00;65.50
38488;DHT22;57384;51.986;4.458;2023-09-12T00:20:11;21.90;65.70
38488;DHT22;57384;51.986;4.458;2023-09-12T00:22:37;21.90;65.60
38488;DHT22;57384;51.986;4.458;2023-09-12T00:25:04;21.80;65.70
38488;DHT22;57384;51.986;4.458;2023-09-12T00:27:31;21.80;65.80
38488;DHT22;57384;51.986;4.458;2023-09-12T00:29:57;21.80;65.80
38488;DHT22;57384;51.986;4.458;2023-09-12T00:32:24;21.80;65.80
38488;DHT22;57384;51.986;4.458;2023-09-12T00:34:50;21.70;65.80
38488;DHT22;57384;51.986;4.458;2023-09-12T00:37:17;21.80;65.80
38488;DHT22;57384;51.986;4.458;2023-09-12T00:39:45;21.70;65.80
38488;DHT22;57384;51.986;4.458;2023-09-12T00:42:11;21.70;66.10
38488;DHT22;57384;51.986;4.458;2023-09-12T00:44:38;21.60;66.30
38488;DHT22;57384;51.986;4.458;2023-09-12T00:47:05;21.60;66.30
38488;DHT22;57384;51.986;4.458;2023-09-12T00:49:32;21.60;66.20
38488;DHT22;57384;51.986;4.458;2023-09-12T00:51:59;21.60;66.10
38488;DHT22;57384;51.986;4.458;2023-09-12T00:54:26;21.50;65.70
38488;DHT22;57384;51.986;4.458;2023-09-12T00:56:53;21.50;66.00
38488;DHT22;57384;51.986;4.458;2023-09-12T00:59:20;21.40;66.30
38488;DHT22;57384;51.986;4.458;2023-09-12T01:01:47;21.40;66.40
38488;DHT22;57384;51.986;4.458;2023-09-12T01:04:14;21.40;66.60
38488;DHT22;57384;51.986;4.458;2023-09-12T01:06:41;21.40;66.80
38488;DHT22;57384;51.986;4.458;2023-09-12T01:09:07;21.30;66.90
38488;DHT22;57384;51.986;4.458;2023-09-12T01:11:34;21.40;67.20
38488;DHT22;57384;51.986;4.458;2023-09-12T01:14:01;21.30;67.20
38488;DHT22;57384;51.986;4.458;2023-09-12T01:16:29;21.30;67.60
38488;DHT22;57384;51.986;4.458;2023-09-12T01:18:56;21.30;67.30
38488;DHT22;57384;51.986;4.458;2023-09-12T01:27:22;21.20;67.40
38488;DHT22;57384;51.986;4.458;2023-09-12T01:29:55;21.20;67.70
38488;DHT22;57384;51.986;4.458;2023-09-12T01:32:22;21.10;67.50
38488;DHT22;57384;51.986;4.458;2023-09-12T01:34:49;21.10;67.50
38488;DHT22;57384;51.986;4.458;2023-09-12T01:37:15;21.10;67.60
38488;DHT22;57384;51.986;4.458;2023-09-12T01:39:42;21.10;67.40
38488;DHT22;57384;51.986;4.458;2023-09-12T01:42:15;21.10;67.40
38488;DHT22;57384;51.986;4.458;2023-09-12T01:44:46;21.00;67.40
38488;DHT22;57384;51.986;4.458;2023-09-12T01:47:16;21.00;67.30
38488;DHT22;57384;51.986;4.458;2023-09-12T01:49:48;21.00;67.10
38488;DHT22;57384;51.986;4.458;2023-09-12T01:52:16;21.00;67.30
38488;DHT22;57384;51.986;4.458;2023-09-12T01:54:42;21.00;67.90
38488;DHT22;57384;51.986;4.458;2023-09-12T01:57:10;20.90;66.80
38488;DHT22;57384;51.986;4.458;2023-09-12T01:59:37;20.90;67.10
38488;DHT22;57384;51.986;4.458;2023-09-12T02:02:04;20.90;67.10
38488;DHT22;57384;51.986;4.458;2023-09-12T02:04:30;20.80;66.90
38488;DHT22;57384;51.986;4.458;2023-09-12T02:06:57;20.80;67.00
38488;DHT22;57384;51.986;4.458;2023-09-12T02:09:24;20.80;67.00
38488;DHT22;57384;51.986;4.458;2023-09-12T02:11:51;20.80;67.10
38488;DHT22;57384;51.986;4.458;2023-09-12T02:14:17;20.80;67.10
38488;DHT22;57384;51.986;4.458;2023-09-12T02:16:44;20.80;67.20
38488;DHT22;57384;51.986;4.458;2023-09-12T02:19:10;20.70;67.10
38488;DHT22;57384;51.986;4.458;2023-09-12T02:21:37;20.70;67.10
38488;DHT22;57384;51.986;4.458;2023-09-12T02:24:04;20.70;67.30
38488;DHT22;57384;51.986;4.458;2023-09-12T02:26:30;20.70;67.30
38488;DHT22;57384;51.986;4.458;2023-09-12T02:28:57;20.70;67.30
38488;DHT22;57384;51.986;4.458;2023-09-12T02:31:23;20.60;67.30
38488;DHT22;57384;51.986;4.458;2023-09-12T02:33:50;20.70;67.40
38488;DHT22;57384;51.986;4.458;2023-09-12T02:36:16;20.60;67.40
38488;DHT22;57384;51.986;4.458;2023-09-12T02:38:43;20.60;67.50
38488;DHT22;57384;51.986;4.458;2023-09-12T02:41:09;20.60;67.60
38488;DHT22;57384;51.986;4.458;2023-09-12T02:43:37;20.50;67.70
38488;DHT22;57384;51.986;4.458;2023-09-12T02:46:04;20.50;67.50
38488;DHT22;57384;51.986;4.458;2023-09-12T02:48:30;20.50;67.70
38488;DHT22;57384;51.986;4.458;2023-09-12T02:50:57;20.50;68.00
38488;DHT22;57384;51.986;4.458;2023-09-12T02:53:23;20.50;67.80
38488;DHT22;57384;51.986;4.458;2023-09-12T02:55:51;20.40;67.80
38488;DHT22;57384;51.986;4.458;2023-09-12T02:58:18;20.40;68.00
38488;DHT22;57384;51.986;4.458;2023-09-12T03:00:44;20.40;68.00
38488;DHT22;57384;51.986;4.458;2023-09-12T03:03:11;20.40;68.20
38488;DHT22;57384;51.986;4.458;2023-09-12T03:05:37;20.40;68.40
38488;DHT22;57384;51.986;4.458;2023-09-12T03:08:04;20.40;68.50
38488;DHT22;57384;51.986;4.458;2023-09-12T03:10:30;20.30;68.40
38488;DHT22;57384;51.986;4.458;2023-09-12T03:12:57;20.30;68.50
38488;DHT22;57384;51.986;4.458;2023-09-12T03:15:24;20.30;68.50
38488;DHT22;57384;51.986;4.458;2023-09-12T03:17:50;20.30;68.40
38488;DHT22;57384;51.986;4.458;2023-09-12T03:20:17;20.30;68.30
38488;DHT22;57384;51.986;4.458;2023-09-12T03:22:44;20.30;68.40
38488;DHT22;57384;51.986;4.458;2023-09-12T03:25:11;20.30;68.60
38488;DHT22;57384;51.986;4.458;2023-09-12T03:27:38;20.30;68.70
38488;DHT22;57384;51.986;4.458;2023-09-12T03:30:05;20.30;68.60
38488;DHT22;57384;51.986;4.458;2023-09-12T03:32:32;20.30;68.90
38488;DHT22;57384;51.986;4.458;2023-09-12T03:34:58;20.30;68.90
38488;DHT22;57384;51.986;4.458;2023-09-12T03:37:25;20.30;68.90
38488;DHT22;57384;51.986;4.458;2023-09-12T03:39:51;20.30;69.00
38488;DHT22;57384;51.986;4.458;2023-09-12T03:42:18;20.30;69.10
38488;DHT22;57384;51.986;4.458;2023-09-12T03:44:44;20.30;68.90
38488;DHT22;57384;51.986;4.458;2023-09-12T03:47:11;20.30;69.40
38488;DHT22;57384;51.986;4.458;2023-09-12T03:49:38;20.30;69.30
38488;DHT22;57384;51.986;4.458;2023-09-12T03:52:04;20.30;69.40
38488;DHT22;57384;51.986;4.458;2023-09-12T03:54:31;20.30;69.40
38488;DHT22;57384;51.986;4.458;2023-09-12T03:56:57;20.30;69.40
38488;DHT22;57384;51.986;4.458;2023-09-12T03:59:24;20.30;69.60
38488;DHT22;57384;51.986;4.458;2023-09-12T04:01:50;20.30;69.80
38488;DHT22;57384;51.986;4.458;2023-09-12T04:04:17;20.30;69.70
38488;DHT22;57384;51.986;4.458;2023-09-12T04:06:43;20.30;69.80
38488;DHT22;57384;51.986;4.458;2023-09-12T04:09:10;20.30;70.00
38488;DHT22;57384;51.986;4.458;2023-09-12T04:11:39;20.30;70.30
38488;DHT22;57384;51.986;4.458;2023-09-12T04:14:06;20.30;70.30
38488;DHT22;57384;51.986;4.458;2023-09-12T04:16:32;20.30;70.00
38488;DHT22;57384;51.986;4.458;2023-09-12T04:18:59;20.30;70.00
38488;DHT22;57384;51.986;4.458;2023-09-12T04:21:25;20.30;70.10
38488;DHT22;57384;51.986;4.458;2023-09-12T04:23:52;20.30;70.50
38488;DHT22;57384;51.986;4.458;2023-09-12T04:26:18;20.30;69.80
38488;DHT22;57384;51.986;4.458;2023-09-12T04:28:47;20.30;70.30
38488;DHT22;57384;51.986;4.458;2023-09-12T04:31:13;20.30;70.40
38488;DHT22;57384;51.986;4.458;2023-09-12T04:33:40;20.30;70.50
38488;DHT22;57384;51.986;4.458;2023-09-12T04:36:06;20.40;70.70
38488;DHT22;57384;51.986;4.458;2023-09-12T04:38:33;20.30;70.80
38488;DHT22;57384;51.986;4.458;2023-09-12T04:41:01;20.30;70.80
38488;DHT22;57384;51.986;4.458;2023-09-12T04:43:28;20.40;71.00
38488;DHT22;57384;51.986;4.458;2023-09-12T04:45:55;20.30;71.10
38488;DHT22;57384;51.986;4.458;2023-09-12T04:48:22;20.40;71.00
38488;DHT22;57384;51.986;4.458;2023-09-12T04:50:48;20.40;70.90
38488;DHT22;57384;51.986;4.458;2023-09-12T04:53:15;20.30;71.10
38488;DHT22;57384;51.986;4.458;2023-09-12T04:55:41;20.40;71.20
38488;DHT22;57384;51.986;4.458;2023-09-12T04:58:08;20.40;71.10
38488;DHT22;57384;51.986;4.458;2023-09-12T05:00:35;20.40;71.00
38488;DHT22;57384;51.986;4.458;2023-09-12T05:03:01;20.40;71.30
38488;DHT22;57384;51.986;4.458;2023-09-12T05:05:28;20.40;71.00
38488;DHT22;57384;51.986;4.458;2023-09-12T05:07:55;20.40;71.00
38488;DHT22;57384;51.986;4.458;2023-09-12T05:10:21;20.40;71.60
38488;DHT22;57384;51.986;4.458;2023-09-12T05:12:48;20.40;72.00
38488;DHT22;57384;51.986;4.458;2023-09-12T05:15:14;20.40;72.40
38488;DHT22;57384;51.986;4.458;2023-09-12T05:17:41;20.50;72.50
38488;DHT22;57384;51.986;4.458;2023-09-12T05:20:08;20.50;72.50
38488;DHT22;57384;51.986;4.458;2023-09-12T05:22:34;20.50;72.80
38488;DHT22;57384;51.986;4.458;2023-09-12T05:25:01;20.50;72.90
38488;DHT22;57384;51.986;4.458;2023-09-12T05:27:27;20.50;73.10
38488;DHT22;57384;51.986;4.458;2023-09-12T05:29:54;20.50;73.00
38488;DHT22;57384;51.986;4.458;2023-09-12T05:32:21;20.50;73.10
38488;DHT22;57384;51.986;4.458;2023-09-12T05:34:47;20.50;73.20
38488;DHT22;57384;51.986;4.458;2023-09-12T05:37:14;20.50;73.10
38488;DHT22;57384;51.986;4.458;2023-09-12T05:39:40;20.50;73.10
38488;DHT22;57384;51.986;4.458;2023-09-12T05:42:07;20.50;73.20
38488;DHT22;57384;51.986;4.458;2023-09-12T05:44:33;20.60;73.50
38488;DHT22;57384;51.986;4.458;2023-09-12T05:47:00;20.60;73.30
38488;DHT22;57384;51.986;4.458;2023-09-12T05:49:27;20.60;73.10
38488;DHT22;57384;51.986;4.458;2023-09-12T05:51:54;20.60;73.40
38488;DHT22;57384;51.986;4.458;2023-09-12T05:54:20;20.60;73.50
38488;DHT22;57384;51.986;4.458;2023-09-12T05:56:47;20.60;73.10
38488;DHT22;57384;51.986;4.458;2023-09-12T05:59:13;20.60;73.40
38488;DHT22;57384;51.986;4.458;2023-09-12T06:01:40;20.70;73.60
38488;DHT22;57384;51.986;4.458;2023-09-12T06:04:06;20.60;73.90
38488;DHT22;57384;51.986;4.458;2023-09-12T06:06:33;20.70;73.80
38488;DHT22;57384;51.986;4.458;2023-09-12T06:08:59;20.70;73.90
38488;DHT22;57384;51.986;4.458;2023-09-12T06:11:31;20.70;74.00
38488;DHT22;57384;51.986;4.458;2023-09-12T06:13:58;20.70;74.90
38488;DHT22;57384;51.986;4.458;2023-09-12T06:16:24;20.70;73.70
38488;DHT22;57384;51.986;4.458;2023-09-12T06:18:51;20.70;74.50
38488;DHT22;57384;51.986;4.458;2023-09-12T06:21:20;20.80;73.90
38488;DHT22;57384;51.986;4.458;2023-09-12T06:24:08;20.80;74.20
38488;DHT22;57384;51.986;4.458;2023-09-12T06:26:35;20.80;74.10
38488;DHT22;57384;51.986;4.458;2023-09-12T06:29:01;20.80;74.20
38488;DHT22;57384;51.986;4.458;2023-09-12T06:31:28;20.90;74.40
38488;DHT22;57384;51.986;4.458;2023-09-12T06:33:54;20.90;74.60
38488;DHT22;57384;51.986;4.458;2023-09-12T06:36:21;20.90;74.80
38488;DHT22;57384;51.986;4.458;2023-09-12T06:38:48;21.00;75.00
38488;DHT22;57384;51.986;4.458;2023-09-12T06:41:15;20.90;74.90
38488;DHT22;57384;51.986;4.458;2023-09-12T06:43:44;21.00;74.80
38488;DHT22;57384;51.986;4.458;2023-09-12T06:46:10;21.00;74.80
38488;DHT22;57384;51.986;4.458;2023-09-12T06:48:37;21.00;74.90
38488;DHT22;57384;51.986;4.458;2023-09-12T06:51:08;21.00;75.30
38488;DHT22;57384;51.986;4.458;2023-09-12T06:53:35;21.10;75.20
38488;DHT22;57384;51.986;4.458;2023-09-12T06:56:02;21.10;75.10
38488;DHT22;57384;51.986;4.458;2023-09-12T06:58:29;21.20;75.00
38488;DHT22;57384;51.986;4.458;2023-09-12T07:00:56;21.20;74.70
38488;DHT22;57384;51.986;4.458;2023-09-12T07:03:22;21.20;74.70
38488;DHT22;57384;51.986;4.458;2023-09-12T07:05:49;21.20;74.50
38488;DHT22;57384;51.986;4.458;2023-09-12T07:08:15;21.30;74.00
38488;DHT22;57384;51.986;4.458;2023-09-12T07:10:45;21.30;74.00
38488;DHT22;57384;51.986;4.458;2023-09-12T07:13:12;21.40;74.30
38488;DHT22;57384;51.986;4.458;2023-09-12T07:15:39;21.40;74.40
38488;DHT22;57384;51.986;4.458;2023-09-12T07:18:05;21.40;74.00
38488;DHT22;57384;51.986;4.458;2023-09-12T07:20:35;21.50;73.90
38488;DHT22;57384;51.986;4.458;2023-09-12T07:23:02;21.50;74.00
38488;DHT22;57384;51.986;4.458;2023-09-12T07:25:28;21.60;74.20
38488;DHT22;57384;51.986;4.458;2023-09-12T07:27:55;21.60;74.00
38488;DHT22;57384;51.986;4.458;2023-09-12T07:30:21;21.70;73.70
38488;DHT22;57384;51.986;4.458;2023-09-12T07:32:48;21.70;73.90
38488;DHT22;57384;51.986;4.458;2023-09-12T07:35:15;21.80;73.60
38488;DHT22;57384;51.986;4.458;2023-09-12T07:37:41;21.80;74.10
38488;DHT22;57384;51.986;4.458;2023-09-12T07:40:08;21.90;73.30
38488;DHT22;57384;51.986;4.458;2023-09-12T07:42:35;21.90;73.10
38488;DHT22;57384;51.986;4.458;2023-09-12T07:45:03;21.90;73.40
38488;DHT22;57384;51.986;4.458;2023-09-12T07:47:29;22.00;73.40
38488;DHT22;57384;51.986;4.458;2023-09-12T07:49:56;22.10;72.70
38488;DHT22;57384;51.986;4.458;2023-09-12T07:52:22;22.10;72.20
38488;DHT22;57384;51.986;4.458;2023-09-12T07:54:49;22.20;72.80
38488;DHT22;57384;51.986;4.458;2023-09-12T07:57:19;22.20;73.10
38488;DHT22;57384;51.986;4.458;2023-09-12T07:59:45;22.30;72.30
38488;DHT22;57384;51.986;4.458;2023-09-12T08:02:12;22.40;72.00
38488;DHT22;57384;51.986;4.458;2023-09-12T08:04:38;22.40;72.20
38488;DHT22;57384;51.986;4.458;2023-09-12T08:07:05;22.50;72.30
38488;DHT22;57384;51.986;4.458;2023-09-12T08:09:56;22.60;71.70
38488;DHT22;57384;51.986;4.458;2023-09-12T08:12:25;22.70;71.60
38488;DHT22;57384;51.986;4.458;2023-09-12T08:14:52;22.80;71.70
38488;DHT22;57384;51.986;4.458;2023-09-12T08:17:18;22.90;71.00
38488;DHT22;57384;51.986;4.458;2023-09-12T08:19:45;23.00;70.60
38488;DHT22;57384;51.986;4.458;2023-09-12T08:22:12;23.10;70.30
38488;DHT22;57384;51.986;4.458;2023-09-12T08:24:39;23.20;70.40
38488;DHT22;57384;51.986;4.458;2023-09-12T08:27:06;23.30;70.20
38488;DHT22;57384;51.986;4.458;2023-09-12T08:29:33;23.40;70.10
38488;DHT22;57384;51.986;4.458;2023-09-12T08:32:01;23.50;69.70
38488;DHT22;57384;51.986;4.458;2023-09-12T08:34:27;23.60;69.60
38488;DHT22;57384;51.986;4.458;2023-09-12T08:36:59;23.70;69.70
38488;DHT22;57384;51.986;4.458;2023-09-12T08:39:43;23.90;69.30
38488;DHT22;57384;51.986;4.458;2023-09-12T08:42:13;24.00;69.30
38488;DHT22;57384;51.986;4.458;2023-09-12T08:44:41;24.10;68.80
38488;DHT22;57384;51.986;4.458;2023-09-12T08:47:11;24.30;68.70
38488;DHT22;57384;51.986;4.458;2023-09-12T08:49:38;24.40;69.10
38488;DHT22;57384;51.986;4.458;2023-09-12T08:52:05;24.50;69.10
38488;DHT22;57384;51.986;4.458;2023-09-12T08:54:32;24.70;68.60
38488;DHT22;57384;51.986;4.458;2023-09-12T08:57:01;24.80;68.20
38488;DHT22;57384;51.986;4.458;2023-09-12T08:59:30;24.90;68.00
38488;DHT22;57384;51.986;4.458;2023-09-12T09:01:57;25.10;67.90
38488;DHT22;57384;51.986;4.458;2023-09-12T09:04:24;25.30;67.70
38488;DHT22;57384;51.986;4.458;2023-09-12T09:06:52;25.40;67.50
38488;DHT22;57384;51.986;4.458;2023-09-12T09:09:21;25.60;67.40
38488;DHT22;57384;51.986;4.458;2023-09-12T09:11:48;25.70;67.40
38488;DHT22;57384;51.986;4.458;2023-09-12T09:14:14;26.00;67.40
38488;DHT22;57384;51.986;4.458;2023-09-12T09:16:41;26.10;67.10
38488;DHT22;57384;51.986;4.458;2023-09-12T09:19:07;26.40;67.00
38488;DHT22;57384;51.986;4.458;2023-09-12T09:21:34;26.60;66.80
38488;DHT22;57384;51.986;4.458;2023-09-12T09:24:06;26.80;66.50
38488;DHT22;57384;51.986;4.458;2023-09-12T09:26:50;27.00;66.20
38488;DHT22;57384;51.986;4.458;2023-09-12T09:29:19;27.20;66.20
38488;DHT22;57384;51.986;4.458;2023-09-12T09:31:48;27.40;66.00
38488;DHT22;57384;51.986;4.458;2023-09-12T09:34:18;27.70;65.80
38488;DHT22;57384;51.986;4.458;2023-09-12T09:36:56;27.90;65.70
38488;DHT22;57384;51.986;4.458;2023-09-12T09:39:24;28.10;65.40
38488;DHT22;57384;51.986;4.458;2023-09-12T09:41:54;28.40;65.40
38488;DHT22;57384;51.986;4.458;2023-09-12T09:44:22;28.50;64.70
38488;DHT22;57384;51.986;4.458;2023-09-12T09:46:59;28.70;64.80
38488;DHT22;57384;51.986;4.458;2023-09-12T09:49:26;28.90;64.50
38488;DHT22;57384;51.986;4.458;2023-09-12T09:51:54;29.00;64.20
38488;DHT22;57384;51.986;4.458;2023-09-12T09:54:24;29.10;64.00
38488;DHT22;57384;51.986;4.458;2023-09-12T09:56:54;29.30;63.70
38488;DHT22;57384;51.986;4.458;2023-09-12T09:59:23;29.40;63.50
38488;DHT22;57384;51.986;4.458;2023-09-12T10:01:59;29.60;63.20
38488;DHT22;57384;51.986;4.458;2023-09-12T10:04:27;29.60;64.00
38488;DHT22;57384;51.986;4.458;2023-09-12T10:06:55;29.80;63.40
38488;DHT22;57384;51.986;4.458;2023-09-12T10:09:25;29.90;62.70
38488;DHT22;57384;51.986;4.458;2023-09-12T10:11:52;30.00;62.30
38488;DHT22;57384;51.986;4.458;2023-09-12T10:14:23;30.10;62.30
38488;DHT22;57384;51.986;4.458;2023-09-12T10:16:50;30.30;61.70
38488;DHT22;57384;51.986;4.458;2023-09-12T10:19:24;30.40;61.90
38488;DHT22;57384;51.986;4.458;2023-09-12T10:24:30;30.70;60.50
38488;DHT22;57384;51.986;4.458;2023-09-12T10:26:57;30.80;60.90
38488;DHT22;57384;51.986;4.458;2023-09-12T10:29:24;30.90;60.90
38488;DHT22;57384;51.986;4.458;2023-09-12T10:31:51;31.10;60.70
38488;DHT22;57384;51.986;4.458;2023-09-12T10:34:17;31.20;60.60
38488;DHT22;57384;51.986;4.458;2023-09-12T10:36:45;31.30;60.80
38488;DHT22;57384;51.986;4.458;2023-09-12T10:39:12;31.40;60.80
38488;DHT22;57384;51.986;4.458;2023-09-12T10:41:40;31.60;60.20
38488;DHT22;57384;51.986;4.458;2023-09-12T10:44:10;31.70;59.80
38488;DHT22;57384;51.986;4.458;2023-09-12T10:46:41;31.70;59.90
38488;DHT22;57384;51.986;4.458;2023-09-12T10:49:08;31.80;59.80
38488;DHT22;57384;51.986;4.458;2023-09-12T10:51:39;31.90;59.80
38488;DHT22;57384;51.986;4.458;2023-09-12T10:54:07;32.00;59.20
38488;DHT22;57384;51.986;4.458;2023-09-12T10:56:34;32.10;59.40
38488;DHT22;57384;51.986;4.458;2023-09-12T11:01:28;32.10;59.20
38488;DHT22;57384;51.986;4.458;2023-09-12T11:03:54;32.10;58.60
38488;DHT22;57384;51.986;4.458;2023-09-12T11:06:23;32.20;58.70
38488;DHT22;57384;51.986;4.458;2023-09-12T11:11:46;32.20;58.80
38488;DHT22;57384;51.986;4.458;2023-09-12T11:14:13;32.10;58.80
38488;DHT22;57384;51.986;4.458;2023-09-12T11:16:39;32.10;58.80
38488;DHT22;57384;51.986;4.458;2023-09-12T11:19:20;32.10;58.50
38488;DHT22;57384;51.986;4.458;2023-09-12T11:21:51;32.10;58.50
38488;DHT22;57384;51.986;4.458;2023-09-12T11:24:19;32.00;58.40
38488;DHT22;57384;51.986;4.458;2023-09-12T11:26:57;32.00;58.40
38488;DHT22;57384;51.986;4.458;2023-09-12T11:31:55;31.90;58.00
38488;DHT22;57384;51.986;4.458;2023-09-12T11:34:24;31.90;58.40
38488;DHT22;57384;51.986;4.458;2023-09-12T11:36:55;31.80;58.50
38488;DHT22;57384;51.986;4.458;2023-09-12T11:39:25;31.70;58.30
38488;DHT22;57384;51.986;4.458;2023-09-12T11:41:52;31.70;58.40
38488;DHT22;57384;51.986;4.458;2023-09-12T11:44:20;31.60;58.40
38488;DHT22;57384;51.986;4.458;2023-09-12T11:46:48;31.50;58.60
38488;DHT22;57384;51.986;4.458;2023-09-12T11:49:15;31.40;58.80
38488;DHT22;57384;51.986;4.458;2023-09-12T11:51:53;31.30;58.30
38488;DHT22;57384;51.986;4.458;2023-09-12T11:54:24;31.20;58.30
38488;DHT22;57384;51.986;4.458;2023-09-12T11:56:52;31.20;58.20
38488;DHT22;57384;51.986;4.458;2023-09-12T11:59:19;31.00;58.30
38488;DHT22;57384;51.986;4.458;2023-09-12T12:01:45;31.00;58.20
38488;DHT22;57384;51.986;4.458;2023-09-12T12:04:12;30.90;58.40
38488;DHT22;57384;51.986;4.458;2023-09-12T12:06:38;30.80;58.30
38488;DHT22;57384;51.986;4.458;2023-09-12T12:09:06;30.80;58.50
38488;DHT22;57384;51.986;4.458;2023-09-12T12:11:32;30.60;58.30
38488;DHT22;57384;51.986;4.458;2023-09-12T12:14:10;30.60;58.40
38488;DHT22;57384;51.986;4.458;2023-09-12T12:16:40;30.50;58.40
38488;DHT22;57384;51.986;4.458;2023-09-12T12:19:06;30.40;58.10
38488;DHT22;57384;51.986;4.458;2023-09-12T12:21:33;30.40;58.10
38488;DHT22;57384;51.986;4.458;2023-09-12T12:24:00;30.30;58.30
38488;DHT22;57384;51.986;4.458;2023-09-12T12:26:27;30.20;58.20
38488;DHT22;57384;51.986;4.458;2023-09-12T12:28:53;30.10;58.10
38488;DHT22;57384;51.986;4.458;2023-09-12T12:31:21;30.10;58.30
38488;DHT22;57384;51.986;4.458;2023-09-12T12:33:48;30.00;58.30
38488;DHT22;57384;51.986;4.458;2023-09-12T12:36:15;30.00;58.50
38488;DHT22;57384;51.986;4.458;2023-09-12T12:38:41;29.90;58.50
38488;DHT22;57384;51.986;4.458;2023-09-12T12:41:08;29.90;58.40
38488;DHT22;57384;51.986;4.458;2023-09-12T12:43:35;29.80;58.60
38488;DHT22;57384;51.986;4.458;2023-09-12T12:46:01;29.70;58.50
38488;DHT22;57384;51.986;4.458;2023-09-12T12:48:35;29.70;58.60
38488;DHT22;57384;51.986;4.458;2023-09-12T12:51:20;29.70;58.60
38488;DHT22;57384;51.986;4.458;2023-09-12T12:53:51;29.60;58.80
38488;DHT22;57384;51.986;4.458;2023-09-12T12:56:20;29.60;58.90
38488;DHT22;57384;51.986;4.458;2023-09-12T12:58:51;29.60;59.00
38488;DHT22;57384;51.986;4.458;2023-09-12T13:01:19;29.50;59.10
38488;DHT22;57384;51.986;4.458;2023-09-12T13:03:46;29.50;58.90
38488;DHT22;57384;51.986;4.458;2023-09-12T13:06:12;29.50;58.90
38488;DHT22;57384;51.986;4.458;2023-09-12T13:08:43;29.50;58.90
38488;DHT22;57384;51.986;4.458;2023-09-12T13:11:11;29.40;58.80
38488;DHT22;57384;51.986;4.458;2023-09-12T13:13:38;29.40;58.90
38488;DHT22;57384;51.986;4.458;2023-09-12T13:16:06;29.40;59.00
38488;DHT22;57384;51.986;4.458;2023-09-12T13:18:34;29.30;58.90
38488;DHT22;57384;51.986;4.458;2023-09-12T13:21:00;29.30;58.90
38488;DHT22;57384;51.986;4.458;2023-09-12T13:23:27;29.20;59.10
38488;DHT22;57384;51.986;4.458;2023-09-12T13:25:54;29.20;59.10
38488;DHT22;57384;51.986;4.458;2023-09-12T13:28:21;29.20;59.10
38488;DHT22;57384;51.986;4.458;2023-09-12T13:30:48;29.20;59.20
38488;DHT22;57384;51.986;4.458;2023-09-12T13:33:14;29.10;59.10
38488;DHT22;57384;51.986;4.458;2023-09-12T13:35:41;29.10;59.20
38488;DHT22;57384;51.986;4.458;2023-09-12T13:38:08;29.10;59.20
38488;DHT22;57384;51.986;4.458;2023-09-12T13:40:36;29.10;59.20
38488;DHT22;57384;51.986;4.458;2023-09-12T13:43:03;29.00;59.20
38488;DHT22;57384;51.986;4.458;2023-09-12T13:45:30;29.00;59.10
38488;DHT22;57384;51.986;4.458;2023-09-12T13:47:57;28.90;59.10
38488;DHT22;57384;51.986;4.458;2023-09-12T13:50:24;28.90;59.60
38488;DHT22;57384;51.986;4.458;2023-09-12T13:52:52;28.90;59.10
38488;DHT22;57384;51.986;4.458;2023-09-12T13:55:19;28.80;58.90
38488;DHT22;57384;51.986;4.458;2023-09-12T13:57:45;28.80;58.70
38488;DHT22;57384;51.986;4.458;2023-09-12T14:00:12;28.70;58.80
38488;DHT22;57384;51.986;4.458;2023-09-12T14:02:39;28.70;59.60
38488;DHT22;57384;51.986;4.458;2023-09-12T14:05:05;28.60;59.20
38488;DHT22;57384;51.986;4.458;2023-09-12T14:07:32;28.50;59.30
38488;DHT22;57384;51.986;4.458;2023-09-12T14:09:58;28.40;59.80
38488;DHT22;57384;51.986;4.458;2023-09-12T14:12:25;28.30;59.90
38488;DHT22;57384;51.986;4.458;2023-09-12T14:14:52;28.20;60.00
38488;DHT22;57384;51.986;4.458;2023-09-12T14:17:21;28.10;60.10
38488;DHT22;57384;51.986;4.458;2023-09-12T14:19:48;28.10;60.30
38488;DHT22;57384;51.986;4.458;2023-09-12T14:22:14;28.00;60.40
38488;DHT22;57384;51.986;4.458;2023-09-12T14:24:41;27.90;60.40
38488;DHT22;57384;51.986;4.458;2023-09-12T14:27:07;27.90;60.50
38488;DHT22;57384;51.986;4.458;2023-09-12T14:29:34;27.70;60.50
38488;DHT22;57384;51.986;4.458;2023-09-12T14:32:00;27.70;60.50
38488;DHT22;57384;51.986;4.458;2023-09-12T14:34:27;27.60;60.60
38488;DHT22;57384;51.986;4.458;2023-09-12T14:36:54;27.50;60.60
38488;DHT22;57384;51.986;4.458;2023-09-12T14:39:24;27.40;60.60
38488;DHT22;57384;51.986;4.458;2023-09-12T14:41:51;27.40;60.70
38488;DHT22;57384;51.986;4.458;2023-09-12T14:44:18;27.30;60.80
38488;DHT22;57384;51.986;4.458;2023-09-12T14:46:45;27.20;60.70
38488;DHT22;57384;51.986;4.458;2023-09-12T14:49:11;27.10;61.00
38488;DHT22;57384;51.986;4.458;2023-09-12T14:51:37;27.10;61.20
38488;DHT22;57384;51.986;4.458;2023-09-12T14:54:04;27.10;61.30
38488;DHT22;57384;51.986;4.458;2023-09-12T14:56:33;27.00;61.40
38488;DHT22;57384;51.986;4.458;2023-09-12T14:59:00;27.00;61.40
38488;DHT22;57384;51.986;4.458;2023-09-12T15:01:27;26.90;61.30
38488;DHT22;57384;51.986;4.458;2023-09-12T15:03:54;26.90;61.30
38488;DHT22;57384;51.986;4.458;2023-09-12T15:06:20;26.90;61.20
38488;DHT22;57384;51.986;4.458;2023-09-12T15:08:47;26.80;61.20
38488;DHT22;57384;51.986;4.458;2023-09-12T15:11:13;26.80;61.20
38488;DHT22;57384;51.986;4.458;2023-09-12T15:13:40;26.80;61.50
38488;DHT22;57384;51.986;4.458;2023-09-12T15:16:06;26.80;61.70
38488;DHT22;57384;51.986;4.458;2023-09-12T15:18:33;26.70;62.30
38488;DHT22;57384;51.986;4.458;2023-09-12T15:21:00;26.70;61.60
38488;DHT22;57384;51.986;4.458;2023-09-12T15:23:26;26.70;61.60
38488;DHT22;57384;51.986;4.458;2023-09-12T15:25:53;26.70;61.70
38488;DHT22;57384;51.986;4.458;2023-09-12T15:28:19;26.70;61.60
38488;DHT22;57384;51.986;4.458;2023-09-12T15:30:46;26.60;61.60
38488;DHT22;57384;51.986;4.458;2023-09-12T15:33:12;26.60;61.70
38488;DHT22;57384;51.986;4.458;2023-09-12T15:35:39;26.60;62.00
38488;DHT22;57384;51.986;4.458;2023-09-12T15:38:09;26.60;61.90
38488;DHT22;57384;51.986;4.458;2023-09-12T15:40:35;26.60;62.00
38488;DHT22;57384;51.986;4.458;2023-09-12T15:43:03;26.50;61.90
38488;DHT22;57384;51.986;4.458;2023-09-12T15:45:30;26.50;61.90
38488;DHT22;57384;51.986;4.458;2023-09-12T15:47:56;26.50;62.10